ADDS TAF Data INFO
IDs: Format: Raw Decoded Include METARs

Data at: 1206 UTC 20 May 2018

KABY 201123Z 2012/2112 VRB03KT P6SM SCT007 SCT025
  FM201600 10005KT P6SM -TSRA SCT025CB OVC050
  FM202200 10004KT P6SM -SHRA BKN025